Time,TemperatureF,DewpointF,PressureIn,WindDirection,WindDirectionDegrees,WindSpeedMPH,WindSpeedGustMPH,Humidity,HourlyPrecipIn,Conditions,Clouds,dailyrainin,SoftwareType,DateUTC
2013-01-02 00:00:00,42.4,41.6,29.98,NE,45,0.0,0.7,97,0.00,,,0.22,pywws,2013-01-02 05:00:00,
2013-01-02 00:06:00,42.4,41.6,29.98,South,180,1.6,2.2,97,0.00,,,0.00,pywws,2013-01-02 05:06:00,
2013-01-02 00:10:00,42.4,41.6,29.98,SW,225,2.2,3.8,97,0.00,,,0.00,pywws,2013-01-02 05:10:00,
2013-01-02 00:16:00,42.4,41.6,29.97,South,180,0.7,1.6,97,0.00,,,0.00,pywws,2013-01-02 05:16:00,
2013-01-02 00:21:00,42.4,41.6,29.97,SW,225,0.7,1.6,97,0.00,,,0.00,pywws,2013-01-02 05:21:00,
2013-01-02 00:27:00,42.4,41.6,29.98,SW,225,0.0,0.7,97,0.00,,,0.00,pywws,2013-01-02 05:27:00,
2013-01-02 00:32:00,42.6,41.8,29.97,SW,225,0.7,1.6,97,0.00,,,0.00,pywws,2013-01-02 05:32:00,
2013-01-02 00:38:00,42.6,41.8,29.98,West,270,0.0,0.0,97,0.00,,,0.00,pywws,2013-01-02 05:38:00,
2013-01-02 00:44:00,42.6,41.8,29.98,West,270,0.7,2.2,97,0.00,,,0.00,pywws,2013-01-02 05:44:00,
2013-01-02 00:49:00,42.6,41.8,29.98,West,270,1.6,3.1,97,0.00,,,0.00,pywws,2013-01-02 05:49:00,
2013-01-02 00:55:00,42.8,42.0,29.97,NE,45,0.7,1.6,97,0.00,,,0.00,pywws,2013-01-02 05:55:00,
2013-01-02 01:00:00,42.4,41.9,29.97,South,180,1.6,2.2,98,0.01,,,0.01,pywws,2013-01-02 06:00:00,
2013-01-02 01:06:00,42.4,41.9,29.97,NE,45,0.0,1.6,98,0.01,,,0.01,pywws,2013-01-02 06:06:00,
2013-01-02 01:12:00,42.4,41.9,29.97,NE,45,0.0,0.7,98,0.01,,,0.01,pywws,2013-01-02 06:12:00,
2013-01-02 01:20:00,42.6,41.8,29.96,NE,45,0.0,0.7,97,0.01,,,0.01,pywws,2013-01-02 06:20:00,
2013-01-02 01:26:00,42.4,41.6,29.96,West,270,0.7,1.6,97,0.01,,,0.01,pywws,2013-01-02 06:26:00,
2013-01-02 01:32:00,42.4,41.9,29.96,South,180,2.2,3.1,98,0.01,,,0.01,pywws,2013-01-02 06:32:00,
2013-01-02 01:38:00,42.4,41.9,29.95,SW,225,0.7,1.6,98,0.01,,,0.01,pywws,2013-01-02 06:38:00,
2013-01-02 01:44:00,42.4,41.9,29.97,West,270,0.7,1.6,98,0.01,,,0.01,pywws,2013-01-02 06:44:00,
2013-01-02 01:49:00,42.4,41.9,29.96,East,90,0.0,0.7,98,0.01,,,0.01,pywws,2013-01-02 06:49:00,
2013-01-02 01:55:00,42.4,41.9,29.96,SW,225,0.7,2.2,98,0.01,,,0.01,pywws,2013-01-02 06:55:00,
2013-01-02 02:00:00,42.4,41.9,29.97,NW,315,0.0,0.7,98,0.00,,,0.01,pywws,2013-01-02 07:00:00,
2013-01-02 02:13:00,42.4,41.9,29.96,North,0,0.0,0.7,98,0.00,,,0.01,pywws,2013-01-02 07:13:00,
2013-01-02 02:19:00,42.4,41.9,29.97,West,270,0.7,1.6,98,0.00,,,0.01,pywws,2013-01-02 07:19:00,
2013-01-02 02:24:00,42.4,41.9,29.98,West,270,0.0,0.7,98,0.00,,,0.01,pywws,2013-01-02 07:24:00,
2013-01-02 02:30:00,42.4,41.9,29.97,NW,315,0.0,0.7,98,0.00,,,0.01,pywws,2013-01-02 07:30:00,
2013-01-02 02:36:00,42.4,41.9,29.97,NE,45,0.0,1.6,98,0.00,,,0.01,pywws,2013-01-02 07:36:00,
2013-01-02 02:41:00,42.4,41.9,29.98,SE,135,2.2,4.5,98,0.00,,,0.01,pywws,2013-01-02 07:41:00,
2013-01-02 02:47:00,42.4,41.9,29.98,East,90,2.2,3.8,98,0.00,,,0.01,pywws,2013-01-02 07:47:00,
2013-01-02 02:52:00,42.4,41.9,29.99,NE,45,1.6,3.8,98,0.00,,,0.01,pywws,2013-01-02 07:52:00,
2013-01-02 02:58:00,42.3,41.7,29.99,North,0,0.7,3.1,98,0.00,,,0.01,pywws,2013-01-02 07:58:00,
2013-01-02 03:04:00,42.1,41.6,29.99,NE,45,1.6,3.8,98,0.00,,,0.01,pywws,2013-01-02 08:04:00,
2013-01-02 03:09:00,42.1,41.3,30.01,North,0,2.2,4.5,97,0.00,,,0.01,pywws,2013-01-02 08:09:00,
2013-01-02 03:15:00,41.7,40.9,30.00,NE,45,2.2,5.4,97,0.00,,,0.01,pywws,2013-01-02 08:15:00,
2013-01-02 03:20:00,41.5,40.8,30.01,NE,45,2.2,3.8,97,0.00,,,0.01,pywws,2013-01-02 08:20:00,
2013-01-02 03:26:00,41.5,40.5,30.01,North,0,1.6,3.8,96,0.00,,,0.01,pywws,2013-01-02 08:26:00,
2013-01-02 03:32:00,41.4,40.3,30.01,NE,45,2.2,4.5,96,0.00,,,0.01,pywws,2013-01-02 08:32:00,
2013-01-02 03:37:00,41.2,39.9,30.01,NE,45,4.5,6.0,95,0.00,,,0.01,pywws,2013-01-02 08:37:00,
2013-01-02 03:43:00,41.0,39.7,30.01,North,0,1.6,3.1,95,0.00,,,0.01,pywws,2013-01-02 08:43:00,
2013-01-02 03:48:00,40.8,39.5,30.01,North,0,5.4,6.0,95,0.00,,,0.01,pywws,2013-01-02 08:48:00,
2013-01-02 03:53:00,40.6,39.3,30.01,West,270,1.6,4.5,95,0.00,,,0.01,pywws,2013-01-02 08:53:00,
2013-01-02 03:59:00,40.5,39.1,30.01,NE,45,0.7,3.1,95,0.00,,,0.01,pywws,2013-01-02 08:59:00,
2013-01-02 04:04:00,40.3,39.0,30.01,NE,45,3.1,4.5,95,0.00,,,0.01,pywws,2013-01-02 09:04:00,
2013-01-02 04:10:00,40.3,38.7,30.00,East,90,2.2,5.4,94,0.00,,,0.01,pywws,2013-01-02 09:10:00,
2013-01-02 04:16:00,40.1,38.5,30.00,North,0,0.7,1.6,94,0.00,,,0.01,pywws,2013-01-02 09:16:00,
2013-01-02 04:21:00,39.9,38.3,30.00,NNW,338,2.2,5.4,94,0.00,,,0.01,pywws,2013-01-02 09:21:00,
2013-01-02 04:27:00,39.9,38.3,30.01,North,0,1.6,3.1,94,0.00,,,0.01,pywws,2013-01-02 09:27:00,
2013-01-02 04:32:00,39.7,38.2,30.01,NE,45,3.1,5.4,94,0.00,,,0.01,pywws,2013-01-02 09:32:00,
2013-01-02 04:38:00,39.7,38.2,30.01,NE,45,1.6,2.2,94,0.00,,,0.01,pywws,2013-01-02 09:38:00,
2013-01-02 04:44:00,39.6,38.0,30.01,North,0,3.1,4.5,94,0.00,,,0.01,pywws,2013-01-02 09:44:00,
2013-01-02 04:49:00,39.6,38.0,30.01,North,0,2.2,4.5,94,0.00,,,0.01,pywws,2013-01-02 09:49:00,
2013-01-02 04:55:00,39.6,38.0,30.01,North,0,1.6,2.2,94,0.00,,,0.01,pywws,2013-01-02 09:55:00,
2013-01-02 05:00:00,39.4,37.8,30.01,NE,45,0.7,1.6,94,0.00,,,0.01,pywws,2013-01-02 10:00:00,
2013-01-02 05:06:00,39.4,37.8,30.02,NE,45,0.7,1.6,94,0.00,,,0.01,pywws,2013-01-02 10:06:00,
2013-01-02 05:12:00,39.2,37.6,30.01,North,0,0.0,0.0,94,0.00,,,0.01,pywws,2013-01-02 10:12:00,
2013-01-02 05:17:00,39.2,37.6,30.01,North,0,0.0,1.6,94,0.00,,,0.01,pywws,2013-01-02 10:17:00,
2013-01-02 05:23:00,39.2,37.6,30.01,North,0,0.0,1.6,94,0.00,,,0.01,pywws,2013-01-02 10:23:00,
2013-01-02 05:28:00,39.2,37.6,30.01,NW,315,0.7,1.6,94,0.00,,,0.01,pywws,2013-01-02 10:28:00,
2013-01-02 05:34:00,39.0,37.7,30.01,East,90,0.0,0.7,95,0.00,,,0.01,pywws,2013-01-02 10:34:00,
2013-01-02 05:40:00,39.0,37.7,30.00,SE,135,0.0,1.6,95,0.00,,,0.01,pywws,2013-01-02 10:40:00,
2013-01-02 05:45:00,39.0,37.7,30.01,SW,225,0.7,1.6,95,0.00,,,0.01,pywws,2013-01-02 10:45:00,
2013-01-02 05:51:00,38.8,37.5,30.00,SW,225,0.7,2.2,95,0.00,,,0.01,pywws,2013-01-02 10:51:00,
2013-01-02 05:56:00,38.8,37.5,30.01,West,270,0.0,0.7,95,0.00,,,0.01,pywws,2013-01-02 10:56:00,
2013-01-02 06:02:00,38.7,37.4,30.01,SW,225,0.0,0.7,95,0.00,,,0.01,pywws,2013-01-02 11:02:00,
2013-01-02 06:08:00,38.5,37.2,30.01,SW,225,0.0,0.0,95,0.00,,,0.01,pywws,2013-01-02 11:08:00,
2013-01-02 06:13:00,38.5,37.2,30.02,SW,225,0.7,1.6,95,0.00,,,0.01,pywws,2013-01-02 11:13:00,
2013-01-02 06:19:00,38.3,37.0,30.02,NNE,22,0.0,0.0,95,0.00,,,0.01,pywws,2013-01-02 11:19:00,
2013-01-02 06:24:00,38.3,37.0,30.01,West,270,0.0,0.7,95,0.00,,,0.01,pywws,2013-01-02 11:24:00,
2013-01-02 06:30:00,38.3,37.0,30.01,NE,45,0.7,1.6,95,0.00,,,0.01,pywws,2013-01-02 11:30:00,
2013-01-02 06:36:00,38.3,37.0,30.02,ENE,68,0.0,0.7,95,0.00,,,0.01,pywws,2013-01-02 11:36:00,
2013-01-02 06:41:00,38.3,37.0,30.03,North,0,0.0,0.0,95,0.00,,,0.01,pywws,2013-01-02 11:41:00,
2013-01-02 06:48:00,38.3,37.0,30.04,NW,315,0.7,1.6,95,0.00,,,0.01,pywws,2013-01-02 11:48:00,
2013-01-02 06:53:00,38.3,37.0,30.04,NW,315,1.6,3.1,95,0.00,,,0.01,pywws,2013-01-02 11:53:00,
2013-01-02 06:59:00,38.3,37.0,30.04,NE,45,2.2,3.8,95,0.00,,,0.01,pywws,2013-01-02 11:59:00,
2013-01-02 07:04:00,38.1,36.8,30.04,NE,45,1.6,3.1,95,0.00,,,0.01,pywws,2013-01-02 12:04:00,
2013-01-02 07:10:00,37.9,36.9,30.04,East,90,1.6,3.1,96,0.00,,,0.01,pywws,2013-01-02 12:10:00,
2013-01-02 07:16:00,37.9,36.9,30.04,NE,45,1.6,3.1,96,0.00,,,0.01,pywws,2013-01-02 12:16:00,
2013-01-02 07:21:00,37.8,36.7,30.05,NW,315,1.6,3.8,96,0.00,,,0.01,pywws,2013-01-02 12:21:00,
2013-01-02 07:27:00,37.6,36.5,30.06,North,0,2.2,3.8,96,0.00,,,0.01,pywws,2013-01-02 12:27:00,
2013-01-02 07:32:00,37.4,36.4,30.06,NW,315,1.6,3.1,96,0.00,,,0.01,pywws,2013-01-02 12:32:00,
2013-01-02 07:38:00,37.2,35.1,30.05,NE,45,2.2,3.8,92,0.00,,,0.01,pywws,2013-01-02 12:38:00,
2013-01-02 07:44:00,36.9,34.8,30.05,NE,45,0.7,2.2,92,0.00,,,0.01,pywws,2013-01-02 12:44:00,
2013-01-02 07:49:00,36.7,34.6,30.06,NE,45,2.2,3.1,92,0.00,,,0.01,pywws,2013-01-02 12:49:00,
2013-01-02 07:55:00,36.5,34.1,30.06,NE,45,3.1,4.5,91,0.00,,,0.01,pywws,2013-01-02 12:55:00,
2013-01-02 08:00:00,36.1,33.8,30.06,North,0,2.2,4.5,91,0.00,,,0.01,pywws,2013-01-02 13:00:00,
2013-01-02 08:06:00,36.0,33.6,30.06,North,0,0.7,1.6,91,0.00,,,0.01,pywws,2013-01-02 13:06:00,
2013-01-02 08:12:00,36.0,33.6,30.07,South,180,1.6,3.1,91,0.00,,,0.01,pywws,2013-01-02 13:12:00,
2013-01-02 08:17:00,35.8,33.4,30.07,North,0,1.6,3.1,91,0.00,,,0.01,pywws,2013-01-02 13:17:00,
2013-01-02 08:23:00,35.8,33.4,30.07,NW,315,0.0,1.6,91,0.00,,,0.01,pywws,2013-01-02 13:23:00,
2013-01-02 08:28:00,35.6,33.2,30.07,NE,45,3.8,6.0,91,0.00,,,0.01,pywws,2013-01-02 13:28:00,
2013-01-02 08:34:00,35.6,33.2,30.07,NW,315,0.7,2.2,91,0.00,,,0.01,pywws,2013-01-02 13:34:00,
2013-01-02 08:40:00,35.6,33.2,30.07,North,0,3.1,6.9,91,0.00,,,0.01,pywws,2013-01-02 13:40:00,
2013-01-02 08:45:00,36.1,33.8,30.08,North,0,0.7,2.2,91,0.00,,,0.01,pywws,2013-01-02 13:45:00,
2013-01-02 08:52:00,36.5,34.1,30.09,SW,225,0.7,1.6,91,0.00,,,0.01,pywws,2013-01-02 13:52:00,
2013-01-02 08:57:00,36.5,33.9,30.09,East,90,0.7,1.6,90,0.00,,,0.01,pywws,2013-01-02 13:57:00,
2013-01-02 09:05:00,36.5,33.9,30.09,NE,45,2.2,4.5,90,0.00,,,0.01,pywws,2013-01-02 14:05:00,
2013-01-02 09:12:00,36.9,33.9,30.09,NE,45,3.1,4.5,89,0.00,,,0.01,pywws,2013-01-02 14:12:00,
2013-01-02 09:17:00,37.4,35.3,30.09,North,0,2.2,3.8,92,0.00,,,0.01,pywws,2013-01-02 14:17:00,
2013-01-02 09:23:00,37.8,35.4,30.09,North,0,0.7,2.2,91,0.00,,,0.01,pywws,2013-01-02 14:23:00,
2013-01-02 09:28:00,37.8,35.1,30.09,NE,45,2.2,4.5,90,0.00,,,0.01,pywws,2013-01-02 14:28:00,
2013-01-02 09:34:00,37.6,34.6,30.09,NE,45,3.1,4.5,89,0.00,,,0.01,pywws,2013-01-02 14:34:00,
2013-01-02 09:40:00,37.6,34.6,30.09,North,0,4.5,6.0,89,0.00,,,0.01,pywws,2013-01-02 14:40:00,
2013-01-02 09:45:00,37.4,34.2,30.09,NE,45,1.6,2.2,88,0.00,,,0.01,pywws,2013-01-02 14:45:00,
2013-01-02 09:51:00,37.8,34.5,30.10,North,0,2.2,5.4,88,0.00,,,0.01,pywws,2013-01-02 14:51:00,
2013-01-02 09:56:00,37.8,34.5,30.11,North,0,0.7,1.6,88,0.00,,,0.01,pywws,2013-01-02 14:56:00,
2013-01-02 10:02:00,37.4,34.2,30.12,North,0,0.7,1.6,88,0.00,,,0.01,pywws,2013-01-02 15:02:00,
2013-01-02 10:08:00,37.4,33.9,30.12,East,90,1.6,3.8,87,0.00,,,0.01,pywws,2013-01-02 15:08:00,
2013-01-02 10:13:00,37.4,33.9,30.11,NW,315,2.2,4.5,87,0.00,,,0.01,pywws,2013-01-02 15:13:00,
2013-01-02 10:19:00,37.2,32.5,30.11,NW,315,0.7,2.2,83,0.00,,,0.01,pywws,2013-01-02 15:19:00,
2013-01-02 10:24:00,37.2,32.5,30.11,North,0,3.1,4.5,83,0.00,,,0.01,pywws,2013-01-02 15:24:00,
2013-01-02 10:30:00,37.0,32.4,30.12,NE,45,2.2,4.5,83,0.00,,,0.01,pywws,2013-01-02 15:30:00,
2013-01-02 10:36:00,37.0,32.4,30.11,NW,315,3.1,5.4,83,0.00,,,0.01,pywws,2013-01-02 15:36:00,
2013-01-02 10:41:00,36.9,32.2,30.11,NE,45,0.7,1.6,83,0.00,,,0.01,pywws,2013-01-02 15:41:00,
2013-01-02 10:47:00,36.9,32.2,30.11,East,90,1.6,3.1,83,0.00,,,0.01,pywws,2013-01-02 15:47:00,
2013-01-02 10:52:00,37.0,32.4,30.12,NW,315,0.0,0.7,83,0.00,,,0.01,pywws,2013-01-02 15:52:00,
2013-01-02 10:58:00,37.4,33.9,30.12,North,0,0.0,0.7,87,0.00,,,0.01,pywws,2013-01-02 15:58:00,
2013-01-02 11:04:00,37.2,32.5,30.12,NW,315,1.6,2.2,83,0.00,,,0.01,pywws,2013-01-02 16:04:00,
2013-01-02 11:09:00,37.4,33.9,30.11,NE,45,2.2,3.1,87,0.00,,,0.01,pywws,2013-01-02 16:09:00,
2013-01-02 11:15:00,38.3,34.8,30.11,North,0,2.2,6.0,87,0.00,,,0.01,pywws,2013-01-02 16:15:00,
2013-01-02 11:20:00,38.3,34.5,30.10,NE,45,2.2,3.8,86,0.00,,,0.01,pywws,2013-01-02 16:20:00,
2013-01-02 11:26:00,38.7,34.5,30.11,West,270,0.7,1.6,85,0.00,,,0.01,pywws,2013-01-02 16:26:00,
2013-01-02 11:32:00,39.4,35.0,30.11,South,180,1.6,3.8,84,0.00,,,0.01,pywws,2013-01-02 16:32:00,
2013-01-02 11:37:00,39.4,34.4,30.10,NE,45,0.7,1.6,82,0.00,,,0.01,pywws,2013-01-02 16:37:00,
2013-01-02 11:43:00,39.6,34.2,30.10,NE,45,2.2,3.8,81,0.00,,,0.01,pywws,2013-01-02 16:43:00,
2013-01-02 11:48:00,39.7,34.1,30.10,North,0,0.0,0.7,80,0.00,,,0.01,pywws,2013-01-02 16:48:00,
2013-01-02 11:54:00,40.3,34.3,30.10,North,0,1.6,3.1,79,0.00,,,0.01,pywws,2013-01-02 16:54:00,
2013-01-02 12:00:00,40.6,34.3,30.11,North,0,0.0,0.7,78,0.00,,,0.01,pywws,2013-01-02 17:00:00,
2013-01-02 12:05:00,40.6,34.0,30.10,NE,45,0.0,1.6,77,0.00,,,0.01,pywws,2013-01-02 17:05:00,
2013-01-02 12:11:00,40.6,34.0,30.09,NE,45,0.7,1.6,77,0.00,,,0.01,pywws,2013-01-02 17:11:00,
2013-01-02 12:16:00,41.2,34.2,30.09,SW,225,0.0,1.6,76,0.00,,,0.01,pywws,2013-01-02 17:16:00,
2013-01-02 12:22:00,41.0,33.4,30.09,East,90,0.0,1.6,74,0.00,,,0.01,pywws,2013-01-02 17:22:00,
2013-01-02 12:28:00,41.2,33.9,30.09,East,90,0.7,2.2,75,0.00,,,0.01,pywws,2013-01-02 17:28:00,
2013-01-02 12:33:00,41.4,33.7,30.09,North,0,0.7,1.6,74,0.00,,,0.01,pywws,2013-01-02 17:33:00,
2013-01-02 12:39:00,41.9,33.9,30.08,North,0,1.6,3.1,73,0.00,,,0.01,pywws,2013-01-02 17:39:00,
2013-01-02 12:44:00,41.7,33.4,30.08,NE,45,0.7,2.2,72,0.00,,,0.01,pywws,2013-01-02 17:44:00,
2013-01-02 12:50:00,42.1,34.1,30.08,North,0,0.7,2.2,73,0.00,,,0.01,pywws,2013-01-02 17:50:00,
2013-01-02 12:56:00,42.6,34.6,30.08,NW,315,1.6,3.1,73,0.00,,,0.01,pywws,2013-01-02 17:56:00,
2013-01-02 13:01:00,42.6,34.2,30.07,NE,45,3.1,5.4,72,0.00,,,0.01,pywws,2013-01-02 18:01:00,
2013-01-02 13:07:00,42.3,33.9,30.07,NNW,338,0.7,1.6,72,0.00,,,0.01,pywws,2013-01-02 18:07:00,
2013-01-02 13:12:00,42.6,33.9,30.07,SW,225,0.7,1.6,71,0.00,,,0.01,pywws,2013-01-02 18:12:00,
2013-01-02 13:18:00,42.8,33.7,30.07,NE,45,0.0,1.6,70,0.00,,,0.01,pywws,2013-01-02 18:18:00,
2013-01-02 13:24:00,43.3,33.9,30.06,NE,45,0.0,0.7,69,0.00,,,0.01,pywws,2013-01-02 18:24:00,
2013-01-02 13:29:00,43.3,33.1,30.07,NNE,22,0.7,1.6,67,0.00,,,0.01,pywws,2013-01-02 18:29:00,
2013-01-02 13:35:00,43.3,33.1,30.06,North,0,0.7,2.2,67,0.00,,,0.01,pywws,2013-01-02 18:35:00,
2013-01-02 13:40:00,43.3,33.1,30.06,South,180,0.7,2.2,67,0.00,,,0.01,pywws,2013-01-02 18:40:00,
2013-01-02 13:46:00,43.2,32.6,30.06,NW,315,0.0,1.6,66,0.00,,,0.01,pywws,2013-01-02 18:46:00,
2013-01-02 13:52:00,43.0,32.4,30.06,NE,45,0.7,2.2,66,0.00,,,0.01,pywws,2013-01-02 18:52:00,
2013-01-02 13:57:00,42.6,32.8,30.05,SE,135,0.7,1.6,68,0.00,,,0.01,pywws,2013-01-02 18:57:00,
2013-01-02 14:03:00,42.8,33.0,30.06,North,0,0.0,0.0,68,0.00,,,0.01,pywws,2013-01-02 19:03:00,
2013-01-02 14:08:00,42.8,33.0,30.05,West,270,0.7,1.6,68,0.00,,,0.01,pywws,2013-01-02 19:08:00,
2013-01-02 14:14:00,42.8,33.0,30.06,NE,45,0.7,1.6,68,0.00,,,0.01,pywws,2013-01-02 19:14:00,
2013-01-02 14:20:00,42.8,33.0,30.06,NW,315,0.0,1.6,68,0.00,,,0.01,pywws,2013-01-02 19:20:00,
2013-01-02 14:25:00,42.6,33.2,30.06,SE,135,0.0,0.7,69,0.00,,,0.01,pywws,2013-01-02 19:25:00,
2013-01-02 14:31:00,43.0,33.5,30.06,East,90,0.0,0.7,69,0.00,,,0.01,pywws,2013-01-02 19:31:00,
2013-01-02 14:36:00,43.0,33.2,30.07,NW,315,0.0,1.6,68,0.00,,,0.01,pywws,2013-01-02 19:36:00,
2013-01-02 14:42:00,43.2,33.3,30.07,West,270,1.6,2.2,68,0.00,,,0.01,pywws,2013-01-02 19:42:00,
2013-01-02 14:48:00,43.5,33.7,30.06,West,270,0.7,1.6,68,0.00,,,0.01,pywws,2013-01-02 19:48:00,
2013-01-02 14:53:00,43.5,33.3,30.07,East,90,0.0,1.6,67,0.00,,,0.01,pywws,2013-01-02 19:53:00,
2013-01-02 14:59:00,43.3,33.1,30.07,East,90,1.6,2.2,67,0.00,,,0.01,pywws,2013-01-02 19:59:00,
2013-01-02 15:04:00,43.2,32.6,30.06,East,90,0.0,1.6,66,0.00,,,0.01,pywws,2013-01-02 20:04:00,
2013-01-02 15:10:00,42.8,32.6,30.06,NE,45,1.6,2.2,67,0.00,,,0.01,pywws,2013-01-02 20:10:00,
2013-01-02 15:16:00,42.3,33.5,30.06,SE,135,0.0,0.0,71,0.00,,,0.01,pywws,2013-01-02 20:16:00,
2013-01-02 15:21:00,42.4,33.7,30.07,NW,315,0.0,0.7,71,0.00,,,0.01,pywws,2013-01-02 20:21:00,
2013-01-02 15:27:00,42.3,33.2,30.07,SE,135,0.0,1.6,70,0.00,,,0.01,pywws,2013-01-02 20:27:00,
2013-01-02 15:32:00,42.3,33.5,30.07,SE,135,0.0,0.7,71,0.00,,,0.01,pywws,2013-01-02 20:32:00,
2013-01-02 15:38:00,42.3,33.5,30.08,West,270,0.7,2.2,71,0.00,,,0.01,pywws,2013-01-02 20:38:00,
2013-01-02 15:44:00,42.1,33.4,30.07,NW,315,0.0,1.6,71,0.00,,,0.01,pywws,2013-01-02 20:44:00,
2013-01-02 15:49:00,41.9,33.2,30.08,North,0,0.7,1.6,71,0.00,,,0.01,pywws,2013-01-02 20:49:00,
2013-01-02 15:55:00,42.4,33.7,30.08,East,90,0.0,1.6,71,0.00,,,0.01,pywws,2013-01-02 20:55:00,
2013-01-02 16:00:00,42.4,33.4,30.07,NE,45,0.0,0.7,70,0.00,,,0.01,pywws,2013-01-02 21:00:00,
2013-01-02 16:06:00,41.7,33.0,30.07,NW,315,0.0,0.7,71,0.00,,,0.01,pywws,2013-01-02 21:06:00,
2013-01-02 16:12:00,41.4,33.0,30.08,NW,315,0.0,0.7,72,0.00,,,0.01,pywws,2013-01-02 21:12:00,
2013-01-02 16:17:00,41.0,33.0,30.08,North,0,0.0,0.7,73,0.00,,,0.01,pywws,2013-01-02 21:17:00,
2013-01-02 16:23:00,40.8,33.2,30.09,North,0,0.0,1.6,74,0.00,,,0.01,pywws,2013-01-02 21:23:00,
2013-01-02 16:28:00,40.6,33.0,30.08,NE,45,0.0,0.0,74,0.00,,,0.01,pywws,2013-01-02 21:28:00,
2013-01-02 16:34:00,40.5,33.2,30.08,NE,45,0.7,2.2,75,0.00,,,0.01,pywws,2013-01-02 21:34:00,
2013-01-02 16:40:00,39.9,32.6,30.08,NE,45,2.2,3.8,75,0.00,,,0.01,pywws,2013-01-02 21:40:00,
2013-01-02 16:45:00,39.2,32.3,30.08,NE,45,0.7,2.2,76,0.00,,,0.01,pywws,2013-01-02 21:45:00,
2013-01-02 16:51:00,38.7,32.1,30.08,NE,45,1.6,3.8,77,0.00,,,0.01,pywws,2013-01-02 21:51:00,
2013-01-02 16:56:00,38.5,32.2,30.08,East,90,0.0,0.7,78,0.00,,,0.01,pywws,2013-01-02 21:56:00,
2013-01-02 17:02:00,38.1,32.2,30.09,West,270,0.7,2.2,79,0.00,,,0.01,pywws,2013-01-02 22:02:00,
2013-01-02 17:08:00,37.9,32.0,30.10,North,0,1.6,3.8,79,0.00,,,0.01,pywws,2013-01-02 22:08:00,
2013-01-02 17:13:00,37.6,32.0,30.09,East,90,0.0,1.6,80,0.00,,,0.01,pywws,2013-01-02 22:13:00,
2013-01-02 17:19:00,37.4,32.1,30.08,North,0,0.0,1.6,81,0.00,,,0.01,pywws,2013-01-02 22:19:00,
2013-01-02 17:24:00,37.2,30.7,30.09,SE,135,0.0,0.7,77,0.00,,,0.01,pywws,2013-01-02 22:24:00,
2013-01-02 17:30:00,37.2,30.7,30.10,North,0,1.6,3.1,77,0.00,,,0.01,pywws,2013-01-02 22:30:00,
2013-01-02 17:36:00,37.0,30.5,30.11,NW,315,0.0,0.0,77,0.00,,,0.01,pywws,2013-01-02 22:36:00,
2013-01-02 17:41:00,37.0,30.5,30.11,North,0,0.0,0.7,77,0.00,,,0.01,pywws,2013-01-02 22:41:00,
2013-01-02 17:47:00,37.0,30.5,30.11,North,0,0.0,0.7,77,0.00,,,0.01,pywws,2013-01-02 22:47:00,
2013-01-02 17:52:00,37.0,30.5,30.11,NW,315,0.0,0.7,77,0.00,,,0.01,pywws,2013-01-02 22:52:00,
2013-01-02 17:58:00,36.9,30.3,30.11,East,90,0.7,1.6,77,0.00,,,0.01,pywws,2013-01-02 22:58:00,
2013-01-02 18:04:00,36.7,30.2,30.11,NE,45,1.6,3.1,77,0.00,,,0.01,pywws,2013-01-02 23:04:00,
2013-01-02 18:09:00,36.5,30.3,30.11,NW,315,0.0,0.0,78,0.00,,,0.01,pywws,2013-01-02 23:09:00,
2013-01-02 18:15:00,36.5,30.3,30.11,NE,45,0.0,1.6,78,0.00,,,0.01,pywws,2013-01-02 23:15:00,
2013-01-02 18:20:00,36.5,30.3,30.11,NE,45,0.0,1.6,78,0.00,,,0.01,pywws,2013-01-02 23:20:00,
2013-01-02 18:26:00,36.5,30.3,30.11,North,0,0.0,0.7,78,0.00,,,0.01,pywws,2013-01-02 23:26:00,
2013-01-02 18:32:00,36.3,30.1,30.11,NE,45,0.7,1.6,78,0.00,,,0.01,pywws,2013-01-02 23:32:00,
2013-01-02 18:37:00,36.5,30.3,30.12,NE,45,0.7,2.2,78,0.00,,,0.01,pywws,2013-01-02 23:37:00,
2013-01-02 18:43:00,36.5,30.3,30.12,NE,45,0.0,0.0,78,0.00,,,0.01,pywws,2013-01-02 23:43:00,
2013-01-02 18:48:00,36.5,30.3,30.12,North,0,0.0,0.7,78,0.00,,,0.01,pywws,2013-01-02 23:48:00,
2013-01-02 18:54:00,36.3,30.1,30.11,NE,45,3.1,3.8,78,0.00,,,0.01,pywws,2013-01-02 23:54:00,
2013-01-02 19:01:00,36.3,30.1,30.11,NE,45,0.0,0.0,78,0.00,,,0.01,pywws,2013-01-03 00:01:00,
2013-01-02 19:07:00,36.1,30.0,30.10,NW,315,0.0,0.0,78,0.00,,,0.01,pywws,2013-01-03 00:07:00,
2013-01-02 19:12:00,36.1,30.0,30.11,NE,45,0.0,0.7,78,0.00,,,0.01,pywws,2013-01-03 00:12:00,
2013-01-02 19:18:00,36.1,30.0,30.12,East,90,0.0,0.0,78,0.00,,,0.01,pywws,2013-01-03 00:18:00,
2013-01-02 19:24:00,36.3,30.1,30.11,South,180,0.0,0.0,78,0.00,,,0.01,pywws,2013-01-03 00:24:00,
2013-01-02 19:29:00,36.1,30.0,30.11,NW,315,0.0,1.6,78,0.00,,,0.01,pywws,2013-01-03 00:29:00,
2013-01-02 19:34:00,36.3,30.1,30.11,SW,225,0.0,0.7,78,0.00,,,0.01,pywws,2013-01-03 00:34:00,
2013-01-02 19:40:00,36.3,30.1,30.12,NE,45,0.0,0.0,78,0.00,,,0.01,pywws,2013-01-03 00:40:00,
2013-01-02 19:46:00,36.3,30.4,30.12,NE,45,0.0,0.0,79,0.00,,,0.01,pywws,2013-01-03 00:46:00,
2013-01-02 19:52:00,36.1,30.3,30.12,NW,315,0.0,0.0,79,0.00,,,0.01,pywws,2013-01-03 00:52:00,
2013-01-02 19:57:00,36.3,30.4,30.11,NE,45,0.7,1.6,79,0.00,,,0.01,pywws,2013-01-03 00:57:00,
2013-01-02 20:03:00,36.3,30.1,30.11,NE,45,0.0,0.0,78,0.00,,,0.01,pywws,2013-01-03 01:03:00,
2013-01-02 20:08:00,36.5,30.3,30.11,SE,135,0.0,1.6,78,0.00,,,0.01,pywws,2013-01-03 01:08:00,
2013-01-02 20:15:00,36.9,30.7,30.12,East,90,0.0,0.0,78,0.00,,,0.01,pywws,2013-01-03 01:15:00,
2013-01-02 20:20:00,36.9,30.7,30.12,SW,225,0.0,0.0,78,0.00,,,0.01,pywws,2013-01-03 01:20:00,
2013-01-02 20:27:00,36.7,30.5,30.12,SW,225,0.0,0.0,78,0.00,,,0.01,pywws,2013-01-03 01:27:00,
2013-01-02 20:33:00,36.5,30.3,30.13,SW,225,0.0,0.0,78,0.00,,,0.01,pywws,2013-01-03 01:33:00,
2013-01-02 20:39:00,36.5,30.3,30.13,North,0,0.0,0.7,78,0.00,,,0.01,pywws,2013-01-03 01:39:00,
2013-01-02 20:45:00,36.7,30.8,30.12,SE,135,0.0,0.7,79,0.00,,,0.01,pywws,2013-01-03 01:45:00,
2013-01-02 20:51:00,36.7,30.8,30.12,NE,45,0.0,0.7,79,0.00,,,0.01,pywws,2013-01-03 01:51:00,
2013-01-02 20:56:00,36.3,30.4,30.12,North,0,0.0,0.0,79,0.00,,,0.01,pywws,2013-01-03 01:56:00,
2013-01-02 21:02:00,36.3,30.4,30.11,NE,45,1.6,2.2,79,0.00,,,0.01,pywws,2013-01-03 02:02:00,
2013-01-02 21:08:00,36.1,30.3,30.12,NW,315,0.0,0.0,79,0.00,,,0.01,pywws,2013-01-03 02:08:00,
2013-01-02 21:14:00,36.1,30.3,30.12,NE,45,0.0,0.0,79,0.00,,,0.01,pywws,2013-01-03 02:14:00,
2013-01-02 21:20:00,36.1,30.3,30.12,NE,45,0.0,0.7,79,0.00,,,0.01,pywws,2013-01-03 02:20:00,
2013-01-02 21:25:00,36.1,30.6,30.13,NW,315,0.0,0.7,80,0.00,,,0.01,pywws,2013-01-03 02:25:00,
2013-01-02 21:32:00,36.3,30.8,30.13,NW,315,0.0,0.0,80,0.00,,,0.01,pywws,2013-01-03 02:32:00,
2013-01-02 21:37:00,36.3,30.8,30.13,South,180,0.0,0.7,80,0.00,,,0.01,pywws,2013-01-03 02:37:00,
2013-01-02 21:43:00,36.5,30.9,30.13,South,180,0.0,0.7,80,0.00,,,0.01,pywws,2013-01-03 02:43:00,
2013-01-02 21:49:00,36.5,30.9,30.13,NE,45,0.0,0.0,80,0.00,,,0.01,pywws,2013-01-03 02:49:00,
2013-01-02 21:56:00,36.1,30.6,30.13,NW,315,0.0,0.0,80,0.00,,,0.01,pywws,2013-01-03 02:56:00,
2013-01-02 22:01:00,36.1,30.9,30.13,NW,315,0.0,0.0,81,0.00,,,0.01,pywws,2013-01-03 03:01:00,
2013-01-02 22:07:00,36.1,30.9,30.13,NE,45,0.0,0.0,81,0.00,,,0.01,pywws,2013-01-03 03:07:00,
2013-01-02 22:12:00,36.1,30.9,30.14,NE,45,0.0,0.0,81,0.00,,,0.01,pywws,2013-01-03 03:12:00,
2013-01-02 22:18:00,36.1,30.9,30.14,West,270,0.0,0.7,81,0.00,,,0.01,pywws,2013-01-03 03:18:00,
2013-01-02 22:24:00,36.3,31.1,30.14,SW,225,0.0,0.0,81,0.00,,,0.01,pywws,2013-01-03 03:24:00,
2013-01-02 22:31:00,36.5,31.2,30.14,NE,45,0.0,0.0,81,0.00,,,0.01,pywws,2013-01-03 03:31:00,
2013-01-02 22:38:00,36.5,31.2,30.13,NE,45,0.0,0.0,81,0.00,,,0.01,pywws,2013-01-03 03:38:00,
2013-01-02 22:43:00,36.5,31.2,30.13,East,90,0.0,0.7,81,0.00,,,0.01,pywws,2013-01-03 03:43:00,
2013-01-02 22:48:00,36.3,31.1,30.13,East,90,0.7,1.6,81,0.00,,,0.01,pywws,2013-01-03 03:48:00,
2013-01-02 22:54:00,36.1,30.9,30.13,South,180,0.0,0.7,81,0.00,,,0.01,pywws,2013-01-03 03:54:00,
2013-01-02 23:00:00,36.5,31.2,30.13,South,180,0.0,1.6,81,0.00,,,0.01,pywws,2013-01-03 04:00:00,
2013-01-02 23:06:00,36.5,31.2,30.12,South,180,0.0,1.6,81,0.00,,,0.01,pywws,2013-01-03 04:06:00,
2013-01-02 23:12:00,36.7,31.4,30.12,SE,135,0.7,2.2,81,0.00,,,0.01,pywws,2013-01-03 04:12:00,
2013-01-02 23:17:00,36.5,31.2,30.11,East,90,0.7,2.2,81,0.00,,,0.01,pywws,2013-01-03 04:17:00,
2013-01-02 23:23:00,36.5,31.2,30.12,East,90,0.0,1.6,81,0.00,,,0.01,pywws,2013-01-03 04:23:00,
2013-01-02 23:30:00,36.3,31.1,30.11,SW,225,0.0,0.0,81,0.00,,,0.01,pywws,2013-01-03 04:30:00,
2013-01-02 23:37:00,36.5,31.2,30.11,South,180,0.0,0.0,81,0.00,,,0.01,pywws,2013-01-03 04:37:00,
2013-01-02 23:43:00,36.7,31.4,30.11,SW,225,0.0,0.7,81,0.00,,,0.01,pywws,2013-01-03 04:43:00,
2013-01-02 23:48:00,36.9,31.6,30.10,South,180,0.7,1.6,81,0.00,,,0.01,pywws,2013-01-03 04:48:00,
2013-01-02 23:54:00,37.0,31.8,30.10,SW,225,0.7,1.6,81,0.00,,,0.01,pywws,2013-01-03 04:54:00,